Time;durP1;ratioP1;P1;durP2;ratioP2;P2;SDS_P1;SDS_P2;PMS_P1;PMS_P2;Temp;Humidity;BMP_temperature;BMP_pressure;BME280_temperature;BME280_humidity;BME280_pressure;Samples;Min_cycle;Max_cycle;Signal;HPM_P1;HPM_P2
2023/07/23 00:02:38;;;;;;;8.35;6.72;;;20.30;90.20;;;;;;4990271;28;20077;-50
2023/07/23 00:05:24;;;;;;;7.82;7.03;;;20.20;90.30;;;;;;4989855;28;20043;-49
2023/07/23 00:08:10;;;;;;;8.70;6.95;;;20.20;90.30;;;;;;4994684;28;20026;-48
2023/07/23 00:10:57;;;;;;;12.02;8.45;;;20.20;90.60;;;;;;4993880;28;20038;-51
2023/07/23 00:13:43;;;;;;;9.38;8.38;;;20.20;90.40;;;;;;4995132;28;20034;-49
2023/07/23 00:16:29;;;;;;;6.93;6.13;;;20.10;90.50;;;;;;4992570;28;20030;-49
2023/07/23 00:19:20;;;;;;;8.40;7.10;;;20.10;90.60;;;;;;4993912;28;20019;-51
2023/07/23 00:22:06;;;;;;;9.35;6.60;;;20.10;90.60;;;;;;4994247;28;20507;-50
2023/07/23 00:24:57;;;;;;;9.95;6.45;;;20.00;90.40;;;;;;4994286;28;20022;-50
2023/07/23 00:27:43;;;;;;;8.30;6.80;;;19.80;90.70;;;;;;4992524;28;20065;-49
2023/07/23 00:30:28;;;;;;;8.35;6.32;;;19.80;90.80;;;;;;4993205;28;20432;-48
2023/07/23 00:33:14;;;;;;;8.10;6.38;;;19.80;90.80;;;;;;4995772;28;20041;-47
2023/07/23 00:36:00;;;;;;;9.90;6.97;;;19.70;90.90;;;;;;4988678;28;20022;-50
2023/07/23 00:38:46;;;;;;;8.07;5.95;;;19.60;90.80;;;;;;4994065;28;20081;-48
2023/07/23 00:41:32;;;;;;;8.43;6.60;;;19.50;90.90;;;;;;4994971;28;20034;-47
2023/07/23 00:44:19;;;;;;;6.90;6.20;;;19.50;90.90;;;;;;4993072;28;20047;-51
2023/07/23 00:47:06;;;;;;;7.20;6.35;;;19.50;91.00;;;;;;4993589;28;20092;-56
2023/07/23 00:49:52;;;;;;;8.85;6.05;;;19.40;91.20;;;;;;4993467;28;20031;-47
2023/07/23 00:52:39;;;;;;;8.80;6.38;;;19.30;91.60;;;;;;4993035;28;20109;-46
2023/07/23 00:55:26;;;;;;;7.78;6.35;;;19.30;91.60;;;;;;4993408;28;20033;-51
2023/07/23 00:58:12;;;;;;;9.68;6.45;;;19.20;91.40;;;;;;4994178;28;20468;-50
2023/07/23 01:00:58;;;;;;;9.20;6.05;;;19.20;91.40;;;;;;4989343;28;20102;-48
2023/07/23 01:03:44;;;;;;;8.45;5.88;;;19.10;91.50;;;;;;4993922;28;20399;-49
2023/07/23 01:06:33;;;;;;;8.25;6.70;;;19.10;91.50;;;;;;4993449;28;20038;-50
2023/07/23 01:09:19;;;;;;;7.07;6.05;;;19.10;91.80;;;;;;4993754;28;20044;-47
2023/07/23 01:12:06;;;;;;;7.18;6.20;;;19.10;91.80;;;;;;4993026;28;20387;-46
2023/07/23 01:14:52;;;;;;;8.07;6.15;;;19.10;92.00;;;;;;4990920;28;20153;-50
2023/07/23 01:17:39;;;;;;;8.30;6.20;;;19.10;91.90;;;;;;4991885;28;20422;-50
2023/07/23 01:20:25;;;;;;;7.43;6.30;;;19.10;91.80;;;;;;4993067;28;20380;-46
2023/07/23 01:23:11;;;;;;;9.43;6.15;;;19.10;91.90;;;;;;4993669;28;20027;-52
2023/07/23 01:25:58;;;;;;;8.10;5.57;;;19.00;92.00;;;;;;4994240;28;20399;-49
2023/07/23 01:28:44;;;;;;;10.75;6.55;;;19.00;92.10;;;;;;4992318;28;20041;-48
2023/07/23 01:31:30;;;;;;;7.72;5.97;;;18.90;92.30;;;;;;4994080;28;20041;-51
2023/07/23 01:34:16;;;;;;;8.80;6.40;;;18.80;92.50;;;;;;4993715;28;20041;-51
2023/07/23 01:37:02;;;;;;;7.82;6.43;;;18.80;92.50;;;;;;4994375;28;20041;-52
2023/07/23 01:39:49;;;;;;;7.82;6.10;;;18.80;92.60;;;;;;4993404;28;20040;-50
2023/07/23 01:42:35;;;;;;;7.05;5.82;;;18.80;92.60;;;;;;4994476;28;20049;-47
2023/07/23 01:45:21;;;;;;;7.88;6.70;;;18.80;93.10;;;;;;4994346;28;20023;-48
2023/07/23 01:48:08;;;;;;;7.50;6.53;;;18.80;93.20;;;;;;4993293;28;20140;-46
2023/07/23 01:50:53;;;;;;;8.52;6.18;;;18.80;92.90;;;;;;4993630;28;20030;-50
2023/07/23 01:53:39;;;;;;;10.57;6.20;;;18.80;92.90;;;;;;4994360;28;20031;-49
2023/07/23 01:56:25;;;;;;;7.70;5.82;;;18.80;93.10;;;;;;4993010;28;20034;-47
2023/07/23 01:59:11;;;;;;;8.73;6.28;;;18.90;93.30;;;;;;4994426;28;20028;-50
2023/07/23 02:01:57;;;;;;;7.03;6.07;;;18.90;93.60;;;;;;4993383;28;20109;-47
2023/07/23 02:04:43;;;;;;;8.18;6.63;;;18.90;93.80;;;;;;4993758;28;20556;-49
2023/07/23 02:07:29;;;;;;;9.80;7.10;;;19.00;93.70;;;;;;4992599;28;20495;-50
2023/07/23 02:10:20;;;;;;;9.18;6.85;;;19.10;93.80;;;;;;4992718;28;20557;-48
2023/07/23 02:13:06;;;;;;;7.75;6.50;;;19.10;93.60;;;;;;4993660;28;20033;-49
2023/07/23 02:15:52;;;;;;;9.20;7.03;;;19.10;93.50;;;;;;4992250;28;20038;-49
2023/07/23 02:18:37;;;;;;;8.00;7.18;;;19.00;94.40;;;;;;4966759;28;20774;-53
2023/07/23 02:21:23;;;;;;;8.20;7.15;;;19.10;94.70;;;;;;4993847;28;20106;-54
2023/07/23 02:24:09;;;;;;;13.63;6.55;;;18.90;95.10;;;;;;4994278;28;20046;-48
2023/07/23 02:26:55;;;;;;;9.65;6.97;;;18.70;96.00;;;;;;4993330;28;20451;-48
2023/07/23 02:29:48;;;;;;;8.00;6.70;;;18.60;96.70;;;;;;5050453;28;20388;-52
2023/07/23 02:32:34;;;;;;;10.43;7.32;;;18.50;96.70;;;;;;5048401;28;20116;-47
2023/07/23 02:35:19;;;;;;;9.23;7.53;;;18.50;97.10;;;;;;5048417;28;20028;-45
2023/07/23 02:38:05;;;;;;;7.70;6.88;;;18.70;97.00;;;;;;5048763;28;20101;-50
2023/07/23 02:40:59;;;;;;;9.35;7.13;;;18.70;97.10;;;;;;5051167;28;20162;-50
2023/07/23 02:43:45;;;;;;;9.35;7.32;;;18.70;97.50;;;;;;5050004;28;20029;-51
2023/07/23 02:46:31;;;;;;;8.27;7.03;;;18.60;96.80;;;;;;5049610;28;20051;-51
2023/07/23 02:49:16;;;;;;;7.85;6.78;;;18.60;96.90;;;;;;5030964;28;20502;-50
2023/07/23 02:52:04;;;;;;;9.13;7.00;;;18.70;96.70;;;;;;5030544;28;20045;-52
2023/07/23 02:54:50;;;;;;;8.15;7.00;;;18.70;96.80;;;;;;5027773;28;20029;-50
2023/07/23 02:57:36;;;;;;;10.43;7.07;;;18.80;97.00;;;;;;5051714;28;20021;-47
2023/07/23 03:00:22;;;;;;;8.98;7.13;;;18.80;97.40;;;;;;5058024;28;20021;-46
2023/07/23 03:03:08;;;;;;;9.00;7.65;;;18.90;96.50;;;;;;5065382;28;20519;-49
2023/07/23 03:05:54;;;;;;;7.93;7.13;;;18.80;96.80;;;;;;5066992;28;20033;-45
2023/07/23 03:08:40;;;;;;;9.40;7.05;;;18.80;96.60;;;;;;5061582;28;20471;-46
2023/07/23 03:11:26;;;;;;;9.80;7.63;;;18.80;96.70;;;;;;5047129;28;20029;-47
2023/07/23 03:14:12;;;;;;;8.95;7.22;;;18.80;96.90;;;;;;5062439;28;20029;-45
2023/07/23 03:16:58;;;;;;;8.48;7.32;;;18.80;97.00;;;;;;5067249;28;20527;-46
2023/07/23 03:19:44;;;;;;;9.07;7.03;;;18.70;97.70;;;;;;5054056;28;20414;-48
2023/07/23 03:22:30;;;;;;;10.20;7.22;;;18.80;97.70;;;;;;5075696;28;20425;-47
2023/07/23 03:25:16;;;;;;;8.90;7.53;;;18.70;98.00;;;;;;5047611;28;20124;-49
2023/07/23 03:28:02;;;;;;;9.43;7.25;;;18.70;97.40;;;;;;5043418;28;20413;-46
2023/07/23 03:30:48;;;;;;;8.48;7.13;;;18.70;97.90;;;;;;5048277;28;20465;-49
2023/07/23 03:33:34;;;;;;;9.75;8.10;;;18.70;97.90;;;;;;5060173;28;20485;-48
2023/07/23 03:36:20;;;;;;;9.05;6.95;;;18.70;97.90;;;;;;5060575;28;20036;-48
2023/07/23 03:39:06;;;;;;;8.88;7.03;;;18.70;98.10;;;;;;5067380;28;20110;-47
2023/07/23 03:41:52;;;;;;;8.18;7.15;;;18.80;98.40;;;;;;5054546;28;20025;-47
2023/07/23 03:44:38;;;;;;;9.23;7.68;;;18.80;98.30;;;;;;5053448;28;20092;-46
2023/07/23 03:47:24;;;;;;;9.52;7.35;;;18.80;98.30;;;;;;5053147;28;20484;-49
2023/07/23 03:50:10;;;;;;;8.10;7.30;;;18.80;98.30;;;;;;5053419;28;20398;-45
2023/07/23 03:52:56;;;;;;;10.18;7.53;;;18.80;98.50;;;;;;5040858;28;20022;-48
2023/07/23 03:55:41;;;;;;;8.40;7.05;;;18.70;98.70;;;;;;5053659;28;20043;-45
2023/07/23 03:58:27;;;;;;;8.27;7.28;;;18.70;98.40;;;;;;5032066;28;20025;-48
2023/07/23 04:01:13;;;;;;;8.65;7.63;;;18.70;98.50;;;;;;5039116;28;20032;-52
2023/07/23 04:04:00;;;;;;;8.88;7.68;;;18.70;98.60;;;;;;5053582;28;20025;-50
2023/07/23 04:06:46;;;;;;;12.30;7.75;;;18.70;98.80;;;;;;5055339;28;20108;-49
2023/07/23 04:09:32;;;;;;;11.13;7.57;;;18.70;99.10;;;;;;5054003;28;20075;-50
2023/07/23 04:12:18;;;;;;;7.95;7.10;;;18.60;99.30;;;;;;5039858;28;20109;-48
2023/07/23 04:15:04;;;;;;;7.93;7.13;;;18.60;99.40;;;;;;5053455;28;20028;-49
2023/07/23 04:17:50;;;;;;;8.10;7.30;;;18.70;99.30;;;;;;5045699;28;20071;-49
2023/07/23 04:20:36;;;;;;;9.35;7.78;;;18.80;99.40;;;;;;5053597;28;20037;-46
2023/07/23 04:23:22;;;;;;;10.25;8.23;;;18.80;99.20;;;;;;5052789;28;20090;-49
2023/07/23 04:26:08;;;;;;;8.57;7.43;;;18.80;99.40;;;;;;5051939;28;20033;-48
2023/07/23 04:28:54;;;;;;;10.10;8.60;;;18.80;99.60;;;;;;5053476;28;20128;-48
2023/07/23 04:31:40;;;;;;;10.43;7.60;;;18.80;99.70;;;;;;5053214;28;20152;-51
2023/07/23 04:34:26;;;;;;;9.30;7.60;;;18.90;99.90;;;;;;5053863;28;20021;-49
2023/07/23 04:37:13;;;;;;;9.15;7.28;;;18.80;99.90;;;;;;5053706;28;20028;-49
2023/07/23 04:39:59;;;;;;;9.73;7.35;;;18.90;99.90;;;;;;5052521;28;20025;-44
2023/07/23 04:42:45;;;;;;;8.52;7.63;;;18.90;99.90;;;;;;5054545;28;20038;-51
2023/07/23 04:45:31;;;;;;;10.27;7.65;;;18.90;99.90;;;;;;5053482;28;20028;-49
2023/07/23 04:48:17;;;;;;;11.20;7.47;;;19.00;99.90;;;;;;5051951;28;20029;-48
2023/07/23 04:51:05;;;;;;;9.18;7.75;;;18.90;99.90;;;;;;5038202;28;20075;-49
2023/07/23 04:53:51;;;;;;;19.85;17.05;;;19.00;99.90;;;;;;5052759;28;20105;-48
2023/07/23 04:56:37;;;;;;;23.70;20.10;;;19.00;99.90;;;;;;5053161;28;20028;-52
2023/07/23 04:59:23;;;;;;;20.05;15.88;;;19.10;99.90;;;;;;5052691;28;20024;-50
2023/07/23 05:02:09;;;;;;;14.90;12.60;;;19.20;99.90;;;;;;5035418;28;20029;-50
2023/07/23 05:04:55;;;;;;;14.82;10.20;;;19.20;99.90;;;;;;5052907;28;20025;-49
2023/07/23 05:07:41;;;;;;;11.35;8.88;;;19.30;99.90;;;;;;5051896;28;20071;-51
2023/07/23 05:10:27;;;;;;;12.20;8.85;;;19.20;99.90;;;;;;5051792;28;20080;-49
2023/07/23 05:13:14;;;;;;;10.27;8.13;;;19.20;99.90;;;;;;5052908;28;20029;-51
2023/07/23 05:16:02;;;;;;;9.52;8.13;;;19.30;99.90;;;;;;5051885;28;20486;-51
2023/07/23 05:18:48;;;;;;;11.40;9.07;;;19.40;99.90;;;;;;5036903;28;20037;-52
2023/07/23 05:21:36;;;;;;;9.93;8.85;;;19.40;99.90;;;;;;5053181;28;20068;-48
2023/07/23 05:24:22;;;;;;;9.30;7.72;;;19.40;99.90;;;;;;5051311;28;20033;-49
2023/07/23 05:27:08;;;;;;;9.70;7.85;;;19.50;99.90;;;;;;5053210;28;20452;-49
2023/07/23 05:29:54;;;;;;;9.30;7.38;;;19.60;99.90;;;;;;5051875;28;20037;-51
2023/07/23 05:32:40;;;;;;;8.93;8.02;;;19.60;99.90;;;;;;5051038;28;20425;-52
2023/07/23 05:35:26;;;;;;;17.08;13.93;;;19.60;99.90;;;;;;5051711;28;20117;-49
2023/07/23 05:38:12;;;;;;;46.38;33.85;;;19.70;99.90;;;;;;5051410;28;20117;-50
2023/07/23 05:40:58;;;;;;;49.08;34.15;;;19.80;99.90;;;;;;5052779;28;20029;-50
2023/07/23 05:43:44;;;;;;;28.40;21.55;;;19.80;99.90;;;;;;5037759;28;20033;-51
2023/07/23 05:46:30;;;;;;;18.63;14.02;;;19.80;99.90;;;;;;5051498;28;20033;-51
2023/07/23 05:49:16;;;;;;;16.77;12.50;;;19.80;99.90;;;;;;5049439;28;20029;-48
2023/07/23 05:52:02;;;;;;;13.80;11.85;;;19.80;99.90;;;;;;5052317;28;20359;-50
2023/07/23 05:54:48;;;;;;;14.02;10.55;;;19.80;99.90;;;;;;5063999;28;20041;-48
2023/07/23 05:57:34;;;;;;;11.23;9.02;;;19.90;99.90;;;;;;5051998;28;20513;-49
2023/07/23 06:00:20;;;;;;;11.57;9.27;;;19.90;99.90;;;;;;5050836;28;20033;-48
2023/07/23 06:03:06;;;;;;;10.52;8.90;;;19.90;99.90;;;;;;5023156;28;20028;-47
2023/07/23 06:05:52;;;;;;;12.05;8.43;;;20.00;99.50;;;;;;5051155;28;20032;-48
2023/07/23 06:08:38;;;;;;;9.82;8.82;;;19.90;98.70;;;;;;5051463;28;20378;-53
2023/07/23 06:11:23;;;;;;;11.40;8.13;;;19.80;98.90;;;;;;5051048;28;20028;-51
2023/07/23 06:14:09;;;;;;;10.45;8.60;;;19.80;98.90;;;;;;5050571;28;20033;-47
2023/07/23 06:16:55;;;;;;;8.95;8.05;;;19.70;98.90;;;;;;5050073;28;20036;-51
2023/07/23 06:19:41;;;;;;;16.23;12.98;;;19.70;98.80;;;;;;5051012;28;20029;-54
2023/07/23 06:22:27;;;;;;;19.00;12.73;;;19.80;98.90;;;;;;5051071;28;20045;-48
2023/07/23 06:25:13;;;;;;;10.77;9.02;;;19.80;98.80;;;;;;5051312;28;20036;-48
2023/07/23 06:27:59;;;;;;;9.25;8.27;;;19.90;98.80;;;;;;5050881;28;20409;-49
2023/07/23 06:30:45;;;;;;;33.80;23.00;;;19.90;98.80;;;;;;5051046;28;20035;-49
2023/07/23 06:33:31;;;;;;;19.50;14.20;;;20.00;98.90;;;;;;5052262;28;20041;-51
2023/07/23 06:36:17;;;;;;;16.55;12.25;;;20.20;98.70;;;;;;5050957;28;20021;-50
2023/07/23 06:39:03;;;;;;;14.23;10.40;;;20.30;98.60;;;;;;5051024;28;20450;-48
2023/07/23 06:41:49;;;;;;;10.98;9.55;;;20.40;98.50;;;;;;5050781;28;20362;-51
2023/07/23 06:44:35;;;;;;;12.40;9.10;;;20.60;98.20;;;;;;5051856;28;20048;-47
2023/07/23 06:47:21;;;;;;;9.98;8.80;;;20.60;97.90;;;;;;5036012;28;20037;-52
2023/07/23 06:50:07;;;;;;;10.00;7.95;;;20.70;97.90;;;;;;5036399;28;20040;-52
2023/07/23 06:52:53;;;;;;;9.00;7.47;;;20.70;97.70;;;;;;5052868;28;20389;-46
2023/07/23 06:56:05;;;;;;;9.70;8.32;;;20.90;97.50;;;;;;5050583;28;20029;-48
2023/07/23 06:58:51;;;;;;;10.05;7.45;;;21.00;97.10;;;;;;5051456;28;20580;-48
2023/07/23 07:01:37;;;;;;;10.10;7.30;;;21.00;96.80;;;;;;5050581;28;20091;-48
2023/07/23 07:04:23;;;;;;;27.08;20.90;;;21.10;96.70;;;;;;5035586;28;20078;-48
2023/07/23 07:07:08;;;;;;;20.92;14.15;;;21.20;96.40;;;;;;5050622;28;20112;-51
2023/07/23 07:09:54;;;;;;;19.75;13.50;;;21.20;95.80;;;;;;5050763;28;20517;-50
2023/07/23 07:12:40;;;;;;;14.05;10.02;;;21.30;95.60;;;;;;5036211;28;20112;-45
2023/07/23 07:15:26;;;;;;;12.07;9.70;;;21.50;95.30;;;;;;5052849;28;20029;-46
2023/07/23 07:18:12;;;;;;;11.73;9.02;;;21.50;94.90;;;;;;5053569;28;20036;-46
2023/07/23 07:21:00;;;;;;;8.57;7.18;;;21.60;94.50;;;;;;5040593;28;20102;-47
2023/07/23 07:23:46;;;;;;;10.57;7.55;;;21.70;94.30;;;;;;5054034;28;20053;-53
2023/07/23 07:26:32;;;;;;;10.55;7.35;;;21.80;94.00;;;;;;5040151;28;20112;-52
2023/07/23 07:29:18;;;;;;;10.63;6.82;;;22.00;93.70;;;;;;5055388;28;20498;-48
2023/07/23 07:32:05;;;;;;;9.02;6.82;;;22.00;93.10;;;;;;5053611;28;20530;-49
2023/07/23 07:34:51;;;;;;;10.00;6.93;;;22.10;93.10;;;;;;5053613;28;20037;-49
2023/07/23 07:37:37;;;;;;;10.63;7.00;;;22.10;92.90;;;;;;5053658;28;20094;-46
2023/07/23 07:40:23;;;;;;;7.80;6.70;;;22.10;92.50;;;;;;5054689;28;20029;-48
2023/07/23 07:43:09;;;;;;;8.75;6.75;;;22.10;92.90;;;;;;5054525;28;20536;-46
2023/07/23 07:45:59;;;;;;;7.80;6.88;;;22.20;92.60;;;;;;5053999;28;20576;-48
2023/07/23 07:48:46;;;;;;;7.88;6.57;;;22.40;92.70;;;;;;5035667;28;20166;-51
2023/07/23 07:51:32;;;;;;;10.18;6.75;;;22.40;92.60;;;;;;5034247;28;20021;-47
2023/07/23 07:54:17;;;;;;;8.10;6.32;;;22.40;92.20;;;;;;5042810;28;20029;-47
2023/07/23 07:57:04;;;;;;;8.77;6.82;;;22.60;91.50;;;;;;5054093;28;20129;-48
2023/07/23 07:59:50;;;;;;;8.57;6.45;;;22.50;91.10;;;;;;5053304;28;20105;-50
2023/07/23 08:02:37;;;;;;;8.07;5.90;;;22.60;90.90;;;;;;5054971;28;20044;-51
2023/07/23 08:05:23;;;;;;;6.88;5.80;;;22.70;90.60;;;;;;5051929;28;20444;-52
2023/07/23 08:08:13;;;;;;;7.50;6.53;;;22.90;90.90;;;;;;5054504;28;20028;-51
2023/07/23 08:11:01;;;;;;;7.13;6.10;;;23.00;90.70;;;;;;5051811;28;20029;-50
2023/07/23 08:13:48;;;;;;;6.78;6.07;;;23.30;90.60;;;;;;5053701;28;20441;-50
2023/07/23 08:16:34;;;;;;;7.50;6.07;;;23.30;90.20;;;;;;5050742;28;20028;-50
2023/07/23 08:19:20;;;;;;;10.15;6.47;;;23.30;90.20;;;;;;5045619;28;20447;-48
2023/07/23 08:22:07;;;;;;;7.82;6.40;;;23.30;90.30;;;;;;5050734;28;20124;-48
2023/07/23 08:24:53;;;;;;;10.30;6.28;;;23.30;90.20;;;;;;5031330;28;20033;-51
2023/07/23 08:27:40;;;;;;;7.13;6.35;;;23.30;90.30;;;;;;5040314;28;20025;-50
2023/07/23 08:30:30;;;;;;;6.72;5.78;;;23.40;90.10;;;;;;5032276;28;20554;-48
2023/07/23 08:33:21;;;;;;;8.93;5.85;;;23.40;88.20;;;;;;5042372;28;20103;-49
2023/07/23 08:36:07;;;;;;;7.22;5.65;;;23.50;86.20;;;;;;5028868;28;20096;-49
2023/07/23 08:38:54;;;;;;;6.85;5.50;;;23.50;85.30;;;;;;5044710;28;20025;-48
2023/07/23 08:42:01;;;;;;;8.50;5.65;;;23.60;84.40;;;;;;5047151;28;20033;-50
2023/07/23 08:45:21;;;;;;;6.20;5.50;;;23.60;84.10;;;;;;5049664;28;20032;-50
2023/07/23 08:48:15;;;;;;;7.70;5.40;;;23.80;83.30;;;;;;5022656;28;20130;-49
2023/07/23 08:51:03;;;;;;;7.28;5.95;;;23.90;83.70;;;;;;5052205;28;20664;-49
2023/07/23 08:53:50;;;;;;;6.70;5.68;;;24.10;82.40;;;;;;5051207;28;20454;-50
2023/07/23 08:56:38;;;;;;;8.90;5.90;;;24.20;82.10;;;;;;5047087;28;20025;-47
2023/07/23 08:59:26;;;;;;;6.82;5.30;;;24.30;82.20;;;;;;5033890;28;20068;-51
2023/07/23 09:02:13;;;;;;;5.97;5.38;;;24.30;81.20;;;;;;5050938;28;20045;-51
2023/07/23 09:04:59;;;;;;;9.98;5.10;;;24.40;78.50;;;;;;5048473;28;20029;-46
2023/07/23 09:07:48;;;;;;;10.43;5.40;;;24.40;78.10;;;;;;5042364;28;20038;-49
2023/07/23 09:10:34;;;;;;;7.65;5.53;;;24.60;78.40;;;;;;5041526;28;20065;-45
2023/07/23 09:13:20;;;;;;;6.13;5.22;;;25.00;77.40;;;;;;5043803;28;20029;-49
2023/07/23 09:16:06;;;;;;;8.63;4.95;;;25.20;76.50;;;;;;5029567;28;20021;-48
2023/07/23 09:18:51;;;;;;;12.38;5.38;;;25.40;76.20;;;;;;5028869;28;20035;-48
2023/07/23 09:21:40;;;;;;;9.80;4.72;;;25.30;74.40;;;;;;5041061;28;20539;-50
2023/07/23 09:24:33;;;;;;;8.95;6.07;;;25.10;74.10;;;;;;5042166;28;20421;-47
2023/07/23 09:27:19;;;;;;;8.57;5.00;;;25.20;73.20;;;;;;5043033;28;20025;-52
2023/07/23 09:30:06;;;;;;;8.73;5.25;;;25.20;73.10;;;;;;5040638;28;20172;-49
2023/07/23 09:33:01;;;;;;;5.13;4.00;;;25.30;73.30;;;;;;5043242;28;20036;-51
2023/07/23 09:35:47;;;;;;;7.07;4.90;;;25.20;73.10;;;;;;5046981;28;20028;-51
2023/07/23 09:38:34;;;;;;;8.82;4.93;;;25.40;73.50;;;;;;5049923;28;20103;-48
2023/07/23 09:41:20;;;;;;;5.32;4.82;;;25.30;73.00;;;;;;5052654;28;20523;-47
2023/07/23 09:44:09;;;;;;;6.25;4.80;;;25.60;73.20;;;;;;5032157;28;20120;-45
2023/07/23 09:46:58;;;;;;;5.38;4.30;;;25.50;73.40;;;;;;5061932;28;20091;-51
2023/07/23 09:49:44;;;;;;;6.55;4.82;;;25.60;72.60;;;;;;5055430;28;20036;-47
2023/07/23 09:52:37;;;;;;;7.90;5.07;;;25.70;72.00;;;;;;5051028;28;20017;-49
2023/07/23 09:55:23;;;;;;;7.05;4.32;;;25.70;71.20;;;;;;5064148;28;20470;-44
2023/07/23 09:58:11;;;;;;;5.00;4.50;;;25.80;70.50;;;;;;5071067;28;20103;-46
2023/07/23 10:00:57;;;;;;;6.05;4.30;;;25.80;70.70;;;;;;5057496;28;20114;-47
2023/07/23 10:03:48;;;;;;;4.97;4.47;;;26.00;71.20;;;;;;5070506;28;20062;-50
2023/07/23 10:06:34;;;;;;;5.78;4.20;;;26.10;71.00;;;;;;5081962;28;20032;-46
2023/07/23 10:09:22;;;;;;;5.32;4.50;;;26.10;71.40;;;;;;5087809;28;20085;-45
2023/07/23 10:12:08;;;;;;;5.75;4.53;;;26.10;71.80;;;;;;5044710;28;20031;-52
2023/07/23 10:14:54;;;;;;;6.10;4.72;;;26.10;71.80;;;;;;5071785;28;20023;-48
2023/07/23 10:17:44;;;;;;;6.55;4.18;;;26.20;72.20;;;;;;5066164;28;20371;-48
2023/07/23 10:20:32;;;;;;;6.13;4.22;;;25.90;71.80;;;;;;5066505;28;20025;-46
2023/07/23 10:23:20;;;;;;;7.10;4.53;;;25.90;71.90;;;;;;5044352;28;20090;-46
2023/07/23 10:26:23;;;;;;;6.95;4.40;;;25.90;71.10;;;;;;5071978;28;20052;-48
2023/07/23 10:29:14;;;;;;;8.45;4.35;;;25.80;71.00;;;;;;5069586;28;20044;-48
2023/07/23 10:32:23;;;;;;;6.43;4.28;;;25.70;70.80;;;;;;5069880;28;20031;-49
2023/07/23 10:35:10;;;;;;;6.18;4.22;;;25.80;69.70;;;;;;5068016;28;20441;-51
2023/07/23 10:38:19;;;;;;;5.65;4.65;;;25.80;70.00;;;;;;5067521;28;20037;-44
2023/07/23 10:41:07;;;;;;;9.02;6.30;;;25.90;70.70;;;;;;5069774;28;20454;-46
2023/07/23 10:43:53;;;;;;;6.03;4.68;;;25.90;69.90;;;;;;5056094;28;20020;-48
2023/07/23 10:46:38;;;;;;;7.93;5.20;;;25.90;69.60;;;;;;5072182;28;20120;-47
2023/07/23 10:49:29;;;;;;;6.10;5.28;;;26.00;70.50;;;;;;5074348;28;20064;-48
2023/07/23 10:52:17;;;;;;;8.55;5.82;;;26.00;70.70;;;;;;5058664;28;20032;-50
2023/07/23 10:55:04;;;;;;;7.28;4.97;;;26.00;70.00;;;;;;5069700;28;20057;-53
2023/07/23 10:57:53;;;;;;;5.28;4.60;;;25.90;69.80;;;;;;5076057;28;20016;-50
2023/07/23 11:00:51;;;;;;;6.07;4.90;;;25.80;69.60;;;;;;5084106;28;20056;-52
2023/07/23 11:03:43;;;;;;;6.10;4.78;;;25.80;69.90;;;;;;5089019;28;20036;-50
2023/07/23 11:06:31;;;;;;;8.27;5.38;;;25.90;70.50;;;;;;5070965;28;20033;-50
2023/07/23 11:09:26;;;;;;;7.43;4.82;;;26.00;70.50;;;;;;5076832;28;20417;-48
2023/07/23 11:12:13;;;;;;;;;;;26.10;70.40;;;;;;5055054;28;20039;-48
2023/07/23 11:14:59;;;;;;;6.90;4.93;;;26.20;70.10;;;;;;5075550;28;20301;-50
2023/07/23 11:17:45;;;;;;;11.75;4.82;;;26.20;69.00;;;;;;5080414;28;20033;-47
2023/07/23 11:20:31;;;;;;;6.30;4.90;;;26.20;68.20;;;;;;5067575;28;20107;-52
2023/07/23 11:23:20;;;;;;;8.88;5.10;;;26.20;69.00;;;;;;5070345;28;20035;-50
2023/07/23 11:26:06;;;;;;;8.45;4.85;;;26.20;68.10;;;;;;5068489;28;20104;-62
2023/07/23 11:28:52;;;;;;;7.88;5.40;;;26.30;67.70;;;;;;5072811;28;20070;-47
2023/07/23 11:31:39;;;;;;;6.80;5.07;;;26.40;66.90;;;;;;5066137;28;20040;-46
2023/07/23 11:34:25;;;;;;;8.82;5.40;;;26.60;65.80;;;;;;5068110;28;20027;-47
2023/07/23 11:37:11;;;;;;;7.68;4.75;;;26.60;64.60;;;;;;5080247;28;20125;-53
2023/07/23 11:39:56;;;;;;;6.07;4.65;;;26.60;63.90;;;;;;5090190;28;20366;-51
2023/07/23 11:42:42;;;;;;;7.93;4.80;;;26.60;64.60;;;;;;5071284;28;20066;-48
2023/07/23 11:45:28;;;;;;;7.53;4.93;;;26.70;65.00;;;;;;5083024;28;20040;-49
2023/07/23 11:48:17;;;;;;;7.45;4.35;;;26.60;64.60;;;;;;5079219;28;20436;-64
2023/07/23 11:51:04;;;;;;;5.57;4.22;;;26.50;64.30;;;;;;5064311;28;20024;-54
2023/07/23 11:53:53;;;;;;;13.15;5.00;;;26.50;62.10;;;;;;5077386;28;20047;-62
2023/07/23 11:56:41;;;;;;;7.93;4.40;;;26.60;62.40;;;;;;5063672;28;20503;-61
2023/07/23 11:59:27;;;;;;;8.73;5.00;;;26.60;62.80;;;;;;5079621;28;20543;-66
2023/07/23 12:02:13;;;;;;;8.07;4.50;;;26.80;63.40;;;;;;5090437;28;20028;-64
2023/07/23 12:04:59;;;;;;;13.90;5.18;;;26.70;63.10;;;;;;5069875;28;20122;-64
2023/07/23 12:07:46;;;;;;;10.07;4.93;;;26.70;63.40;;;;;;5091038;28;20028;-60
2023/07/23 12:10:33;;;;;;;6.22;4.60;;;26.60;62.90;;;;;;5052468;28;20033;-64
2023/07/23 12:13:25;;;;;;;8.95;5.00;;;26.50;63.00;;;;;;5082860;28;20504;-63
2023/07/23 12:16:37;;;;;;;7.75;4.38;;;26.50;63.70;;;;;;5072317;28;20032;-62
2023/07/23 12:19:23;;;;;;;4.78;4.32;;;26.50;63.60;;;;;;5068446;28;20505;-61
2023/07/23 12:22:09;;;;;;;6.60;4.00;;;26.20;63.70;;;;;;5074709;28;20020;-60
2023/07/23 12:24:55;;;;;;;8.60;4.90;;;26.20;63.50;;;;;;5073073;28;20397;-59
2023/07/23 12:27:41;;;;;;;10.52;5.35;;;26.20;61.90;;;;;;5087572;28;20040;-53
2023/07/23 12:30:27;;;;;;;8.00;4.88;;;26.20;62.20;;;;;;5074391;28;20492;-59
2023/07/23 12:33:13;;;;;;;8.25;5.10;;;26.20;62.50;;;;;;5058864;28;20396;-60
2023/07/23 12:36:00;;;;;;;5.57;4.53;;;26.20;61.60;;;;;;5076166;28;20400;-66
2023/07/23 12:38:46;;;;;;;8.65;5.05;;;26.10;62.10;;;;;;5075781;28;20031;-64
2023/07/23 12:41:32;;;;;;;7.22;5.03;;;26.20;62.00;;;;;;5074733;28;20439;-65
2023/07/23 12:44:18;;;;;;;7.22;4.60;;;26.20;62.10;;;;;;5073677;28;20449;-67
2023/07/23 12:47:05;;;;;;;10.85;5.22;;;26.20;61.60;;;;;;5081895;28;20099;-64
2023/07/23 12:49:51;;;;;;;6.57;4.70;;;26.30;62.70;;;;;;5075838;28;20036;-64
2023/07/23 12:52:37;;;;;;;8.30;5.05;;;26.20;62.70;;;;;;5074007;28;20020;-64
2023/07/23 12:55:23;;;;;;;5.05;4.40;;;26.00;63.30;;;;;;5050887;28;20035;-67
2023/07/23 12:58:09;;;;;;;6.72;4.53;;;25.90;63.80;;;;;;5072912;28;20405;-53
2023/07/23 13:00:54;;;;;;;7.05;4.75;;;26.00;64.10;;;;;;5073466;28;20081;-52
2023/07/23 13:03:42;;;;;;;5.90;4.65;;;25.90;64.20;;;;;;5048694;28;20086;-53
2023/07/23 13:06:28;;;;;;;5.22;4.72;;;25.90;64.70;;;;;;5075272;28;20032;-49
2023/07/23 13:09:14;;;;;;;8.20;4.45;;;25.80;64.30;;;;;;5069835;28;20067;-47
2023/07/23 13:12:00;;;;;;;7.55;4.85;;;25.70;64.50;;;;;;5073755;28;20397;-53
2023/07/23 13:14:46;;;;;;;5.22;4.13;;;25.60;64.80;;;;;;5040531;28;20642;-47
2023/07/23 13:17:33;;;;;;;6.97;4.28;;;25.60;65.40;;;;;;5071164;28;20036;-48
2023/07/23 13:20:19;;;;;;;6.35;4.53;;;25.60;66.20;;;;;;5068992;28;20040;-44
2023/07/23 13:23:06;;;;;;;5.85;4.63;;;25.60;67.10;;;;;;5055808;28;20020;-54
2023/07/23 13:25:52;;;;;;;8.02;4.30;;;25.50;67.80;;;;;;5056719;28;20099;-49
2023/07/23 13:28:41;;;;;;;5.80;4.28;;;25.40;67.90;;;;;;5060193;28;20124;-48
2023/07/23 13:31:27;;;;;;;6.03;4.60;;;25.30;68.20;;;;;;5065860;28;20025;-49
2023/07/23 13:34:13;;;;;;;5.07;4.18;;;25.30;68.00;;;;;;5051852;28;20025;-46
2023/07/23 13:36:59;;;;;;;4.80;4.30;;;25.30;68.90;;;;;;5053879;28;20493;-49
2023/07/23 13:39:46;;;;;;;7.70;5.03;;;25.30;69.10;;;;;;5086476;28;20035;-47
2023/07/23 13:42:32;;;;;;;9.52;4.88;;;25.20;68.90;;;;;;5056406;28;20043;-45
2023/07/23 13:45:20;;;;;;;8.35;4.82;;;25.20;67.90;;;;;;5070919;28;20040;-48
2023/07/23 13:48:07;;;;;;;7.22;4.78;;;25.20;66.00;;;;;;5071943;28;20036;-54
2023/07/23 13:50:53;;;;;;;11.60;4.80;;;25.10;65.70;;;;;;5066896;28;20024;-49
2023/07/23 13:53:39;;;;;;;7.85;4.30;;;25.10;66.20;;;;;;5072081;28;20033;-52
2023/07/23 13:56:25;;;;;;;7.88;4.38;;;25.20;66.10;;;;;;5073089;28;20039;-52
2023/07/23 13:59:13;;;;;;;6.78;4.63;;;25.20;66.10;;;;;;5073200;28;20037;-52
2023/07/23 14:02:00;;;;;;;10.18;4.72;;;25.20;66.80;;;;;;5073899;28;20028;-46
2023/07/23 14:04:46;;;;;;;5.97;4.43;;;25.10;67.60;;;;;;5068618;28;20032;-53
2023/07/23 14:07:32;;;;;;;8.07;4.90;;;25.10;67.80;;;;;;5073149;28;20139;-52
2023/07/23 14:10:25;;;;;;;7.00;5.13;;;24.90;67.70;;;;;;5051033;28;20131;-49
2023/07/23 14:13:11;;;;;;;12.15;5.43;;;24.80;68.60;;;;;;5059594;28;20043;-45
2023/07/23 14:15:58;;;;;;;8.32;5.70;;;24.70;70.30;;;;;;5087047;28;20402;-45
2023/07/23 14:18:44;;;;;;;9.27;5.70;;;24.40;71.80;;;;;;5064092;28;20032;-48
2023/07/23 14:21:30;;;;;;;9.05;6.30;;;24.00;74.10;;;;;;5068837;28;20178;-48
2023/07/23 14:24:18;;;;;;;7.93;4.93;;;23.70;75.00;;;;;;5054108;28;20481;-51
2023/07/23 14:27:05;;;;;;;14.15;6.20;;;23.30;75.60;;;;;;5068595;28;20032;-51